Time;durP1;ratioP1;P1;durP2;ratioP2;P2;SDS_P1;SDS_P2;PMS_P1;PMS_P2;Temp;Humidity;BMP_temperature;BMP_pressure;BME280_temperature;BME280_humidity;BME280_pressure;Samples;Min_cycle;Max_cycle;Signal;HPM_P1;HPM_P2
2022/08/07 00:00:34;;;;;;;9.77;8.40;;;;;;;25.33;67.35;99952.06;5033389;28;20029;-70
2022/08/07 00:02:59;;;;;;;9.95;8.63;;;;;;;25.32;67.46;99957.38;5032962;28;20042;-70
2022/08/07 00:05:26;;;;;;;13.23;8.43;;;;;;;25.39;67.26;99961.59;5033175;28;20037;-70
2022/08/07 00:07:53;;;;;;;9.85;8.18;;;;;;;25.45;67.44;99964.03;5032895;28;20034;-70
2022/08/07 00:10:19;;;;;;;11.65;8.90;;;;;;;25.39;67.36;99950.16;5033395;28;20029;-70
2022/08/07 00:12:45;;;;;;;11.00;8.73;;;;;;;25.27;67.47;99954.91;5033204;28;20116;-70
2022/08/07 00:15:12;;;;;;;11.63;8.90;;;;;;;25.25;68.00;99953.22;5015440;28;20128;-70
2022/08/07 00:17:38;;;;;;;11.23;8.65;;;;;;;25.15;67.60;99927.09;5032857;28;20045;-70
2022/08/07 00:20:05;;;;;;;10.57;8.40;;;;;;;25.30;67.80;99951.28;5033231;28;20458;-70
2022/08/07 00:22:30;;;;;;;10.95;8.65;;;;;;;25.40;67.25;99944.81;4981527;28;20103;-70
2022/08/07 00:24:56;;;;;;;9.73;8.45;;;;;;;25.46;67.27;99947.25;5033025;28;20034;-70
2022/08/07 00:27:21;;;;;;;9.63;8.30;;;;;;;25.56;66.82;99947.81;5032914;28;20037;-70
2022/08/07 00:29:47;;;;;;;8.90;8.00;;;;;;;25.62;66.35;99947.63;5032755;28;20038;-70
2022/08/07 00:32:14;;;;;;;12.48;8.48;;;;;;;25.40;66.15;99905.19;5032450;28;20079;-70
2022/08/07 00:34:40;;;;;;;10.35;8.95;;;;;;;25.22;67.37;99924.25;5032573;28;20407;-70
2022/08/07 00:37:05;;;;;;;11.57;9.35;;;;;;;24.92;68.40;99914.59;5014969;28;20041;-70
2022/08/07 00:39:34;;;;;;;10.13;8.80;;;;;;;24.79;69.46;99921.19;5032618;28;20072;-70
2022/08/07 00:42:01;;;;;;;10.60;8.75;;;;;;;24.70;69.25;99904.72;5032473;28;20121;-70
2022/08/07 00:44:27;;;;;;;11.15;8.73;;;;;;;24.80;69.77;99928.19;5032240;28;20487;-70
2022/08/07 00:46:52;;;;;;;11.70;8.43;;;;;;;24.84;69.70;99938.59;5032451;28;20092;-70
2022/08/07 00:49:18;;;;;;;8.63;7.75;;;;;;;24.78;69.68;99933.53;5032083;28;20042;-70
2022/08/07 00:51:44;;;;;;;9.32;8.10;;;;;;;24.76;69.77;99924.81;5027427;28;20107;-70
2022/08/07 00:54:09;;;;;;;9.27;7.93;;;;;;;24.76;70.17;99926.56;5032385;28;20541;-70
2022/08/07 00:56:35;;;;;;;11.57;8.73;;;;;;;24.45;70.95;99914.25;5032353;28;20053;-70
2022/08/07 00:59:02;;;;;;;9.00;8.05;;;;;;;24.37;71.39;99928.56;5032199;28;20072;-70
2022/08/07 01:01:29;;;;;;;10.55;8.68;;;;;;;24.35;71.73;99926.84;5032118;28;20037;-70
2022/08/07 01:03:55;;;;;;;11.02;8.73;;;;;;;24.08;71.73;99867.84;5032196;28;20474;-70
2022/08/07 01:06:20;;;;;;;8.93;8.05;;;;;;;24.16;71.01;99879.91;5032115;28;20041;-70
2022/08/07 01:08:47;;;;;;;9.05;8.13;;;;;;;24.43;71.64;99937.19;5032087;28;20040;-70
2022/08/07 01:11:13;;;;;;;10.90;8.30;;;;;;;24.37;71.77;99943.50;5031916;28;20041;-70
2022/08/07 01:13:40;;;;;;;9.32;8.30;;;;;;;24.42;71.49;99935.47;5031979;28;20426;-71
2022/08/07 01:16:06;;;;;;;10.38;9.05;;;;;;;24.03;72.39;99886.44;5031853;28;20103;-70
2022/08/07 01:18:34;;;;;;;9.73;8.30;;;;;;;24.43;71.86;99940.69;5032023;28;20106;-70
2022/08/07 01:21:22;;;;;;;9.57;8.57;;;;;;;24.49;71.39;99935.22;4980025;28;20044;-70
2022/08/07 01:23:50;;;;;;;16.38;8.90;;;;;;;24.52;71.24;99915.81;5031702;28;20115;-70
2022/08/07 01:26:19;;;;;;;8.93;8.02;;;;;;;24.74;70.13;99931.03;5031653;28;20034;-70
2022/08/07 01:28:47;;;;;;;8.88;7.97;;;;;;;24.68;69.68;99901.25;5031553;28;20504;-70
2022/08/07 01:31:16;;;;;;;9.68;8.40;;;;;;;24.96;69.21;99945.31;5031500;28;20503;-70
2022/08/07 01:33:41;;;;;;;10.10;8.68;;;;;;;24.74;68.65;99884.38;5031640;28;20033;-71
2022/08/07 01:36:09;;;;;;;9.30;8.30;;;;;;;25.09;68.46;99939.63;5031576;28;20026;-71
2022/08/07 01:38:36;;;;;;;12.30;8.60;;;;;;;25.15;67.52;99942.09;5031524;28;20037;-70
2022/08/07 01:41:03;;;;;;;10.85;7.93;;;;;;;25.11;66.64;99938.69;5031380;28;20084;-70
2022/08/07 01:43:30;;;;;;;10.02;8.02;;;;;;;25.04;64.49;99926.56;5031246;28;20103;-70
2022/08/07 01:45:56;;;;;;;13.30;8.15;;;;;;;24.96;65.00;99908.34;4980238;28;20040;-70
2022/08/07 01:48:23;;;;;;;10.63;8.05;;;;;;;25.08;65.96;99929.97;5031289;28;20033;-70
2022/08/07 01:50:53;;;;;;;9.55;7.57;;;;;;;24.94;64.44;99923.34;5031616;28;20037;-70
2022/08/07 01:53:22;;;;;;;10.95;8.50;;;;;;;24.92;65.85;99924.31;5031563;28;20506;-70
2022/08/07 01:55:57;;;;;;;11.18;8.18;;;;;;;24.92;65.34;99930.44;5031196;28;20128;-70
2022/08/07 01:58:29;;;;;;;10.98;8.38;;;;;;;24.92;65.56;99926.97;5013632;28;20136;-70
2022/08/07 02:01:02;;;;;;;10.77;8.20;;;;;;;24.95;66.02;99925.09;5031147;28;20119;-70
2022/08/07 02:03:32;;;;;;;11.10;8.60;;;;;;;24.73;66.60;99900.28;5031056;28;20108;-70
2022/08/07 02:06:09;;;;;;;9.95;8.95;;;;;;;24.89;66.77;99929.72;5030795;28;20045;-71
2022/08/07 02:08:39;;;;;;;11.80;8.93;;;;;;;24.82;66.96;99927.25;5031156;28;20033;-70
2022/08/07 02:11:07;;;;;;;9.65;8.65;;;;;;;24.66;67.51;99902.22;5031135;28;20038;-71
2022/08/07 02:13:33;;;;;;;10.60;9.43;;;;;;;24.42;66.08;99865.06;5030961;28;20042;-70
2022/08/07 02:16:02;;;;;;;10.63;9.00;;;;;;;24.55;64.78;99921.00;5030863;28;20411;-70
2022/08/07 02:18:29;;;;;;;9.60;8.57;;;;;;;24.45;65.27;99919.53;5030732;28;20038;-70
2022/08/07 02:20:57;;;;;;;9.80;8.80;;;;;;;24.37;65.08;99923.28;5031091;28;20037;-70
2022/08/07 02:23:24;;;;;;;10.70;9.60;;;;;;;24.39;65.43;99932.00;5030870;28;20041;-70
2022/08/07 02:25:52;;;;;;;12.77;9.45;;;;;;;24.33;65.84;99934.81;5030902;28;20033;-70
2022/08/07 02:28:20;;;;;;;9.70;8.70;;;;;;;24.26;65.84;99935.88;5030733;28;20065;-70
2022/08/07 02:30:50;;;;;;;9.50;8.50;;;;;;;24.05;66.67;99906.59;5030196;28;20034;-70
2022/08/07 02:33:17;;;;;;;10.15;8.80;;;;;;;24.15;67.14;99941.47;5030191;28;20030;-70
2022/08/07 02:35:45;;;;;;;11.40;9.82;;;;;;;24.19;67.41;99935.19;5030928;28;20104;-70
2022/08/07 02:38:13;;;;;;;12.80;9.70;;;;;;;24.19;66.84;99935.19;5030517;28;20041;-70
2022/08/07 02:40:39;;;;;;;12.45;9.23;;;;;;;24.21;66.69;99938.66;4963500;28;20045;-70
2022/08/07 02:43:06;;;;;;;10.77;9.40;;;;;;;24.06;66.88;99944.34;5030614;28;20034;-70
2022/08/07 02:45:33;;;;;;;12.25;9.57;;;;;;;24.03;66.95;99940.03;5030491;28;20033;-70
2022/08/07 02:47:59;;;;;;;10.48;9.13;;;;;;;24.07;67.48;99940.81;5030837;28;20094;-70
2022/08/07 02:50:25;;;;;;;9.70;8.70;;;;;;;24.04;67.91;99936.50;5030691;28;20029;-70
2022/08/07 02:52:55;;;;;;;14.88;9.00;;;;;;;24.04;66.98;99939.13;5030447;28;20065;-70
2022/08/07 02:55:25;;;;;;;10.35;8.82;;;;;;;23.83;66.19;99942.31;5030673;28;20384;-70
2022/08/07 02:57:53;;;;;;;14.75;9.32;;;;;;;23.84;66.36;99944.03;5030383;28;20033;-70
2022/08/07 03:00:19;;;;;;;11.13;9.48;;;;;;;23.86;67.29;99947.50;4995803;28;20463;-70
2022/08/07 03:02:47;;;;;;;11.52;9.25;;;;;;;23.84;67.81;99946.66;5030251;28;20042;-70
2022/08/07 03:05:14;;;;;;;11.98;9.57;;;;;;;23.79;67.33;99940.66;5030480;28;20069;-70
2022/08/07 03:07:41;;;;;;;10.13;9.05;;;;;;;23.84;67.33;99946.66;5030378;28;20084;-70
2022/08/07 03:10:08;;;;;;;14.35;9.60;;;;;;;23.86;68.01;99958.91;5030302;28;20039;-70
2022/08/07 03:12:35;;;;;;;15.55;9.85;;;;;;;23.89;67.95;99958.81;5030249;28;20056;-70
2022/08/07 03:15:02;;;;;;;15.50;9.48;;;;;;;23.83;68.56;99952.88;5030301;28;20034;-70
2022/08/07 03:17:28;;;;;;;11.52;9.95;;;;;;;23.70;68.90;99963.72;5030588;28;20053;-70
2022/08/07 03:19:54;;;;;;;26.10;10.10;;;;;;;23.49;66.00;99953.69;5030668;28;20116;-70
2022/08/07 03:22:22;;;;;;;12.73;9.90;;;;;;;23.42;66.26;99950.38;5030243;28;20037;-70
2022/08/07 03:24:48;;;;;;;13.90;9.38;;;;;;;23.05;66.29;99898.53;5030171;28;20029;-70
2022/08/07 03:27:14;;;;;;;16.10;9.85;;;;;;;23.41;67.55;99959.16;5030030;28;20528;-70
2022/08/07 03:29:46;;;;;;;12.60;9.82;;;;;;;23.37;68.10;99968.06;5029314;28;20048;-71
2022/08/07 03:32:13;;;;;;;14.65;10.50;;;;;;;23.42;69.28;99960.91;5010533;28;20095;-70
2022/08/07 03:34:41;;;;;;;13.88;9.80;;;;;;;23.48;70.14;99963.38;5010459;28;20026;-70
2022/08/07 03:37:09;;;;;;;11.93;9.35;;;;;;;23.06;70.76;99916.94;5010370;28;20100;-70
2022/08/07 03:39:37;;;;;;;12.27;9.55;;;;;;;23.34;71.53;99973.38;5011289;28;20484;-71
2022/08/07 03:42:04;;;;;;;13.88;9.85;;;;;;;23.03;73.37;99976.69;5030165;28;20115;-70
2022/08/07 03:44:33;;;;;;;15.02;10.07;;;;;;;22.84;73.82;99949.91;5033300;28;20529;-69
2022/08/07 03:47:00;;;;;;;12.57;9.45;;;;;;;22.72;74.93;99993.16;5033855;28;20071;-70
2022/08/07 03:49:26;;;;;;;15.43;10.38;;;;;;;22.72;74.75;99988.75;5033692;28;20029;-69
2022/08/07 03:51:53;;;;;;;12.55;9.50;;;;;;;22.90;74.65;99984.00;5033571;28;20060;-70
2022/08/07 03:54:18;;;;;;;12.40;9.75;;;;;;;22.87;73.51;99971.78;5033484;28;20129;-70
2022/08/07 03:56:45;;;;;;;16.48;10.02;;;;;;;23.11;72.86;99995.81;5033682;28;20122;-70
2022/08/07 03:59:15;;;;;;;12.32;9.18;;;;;;;23.11;71.01;99990.56;5033662;28;20029;-70
2022/08/07 04:01:43;;;;;;;11.93;9.80;;;;;;;22.94;71.37;99983.03;5033425;28;20041;-69
2022/08/07 04:04:09;;;;;;;15.15;10.30;;;;;;;22.83;72.13;100000.81;5033170;28;20531;-70
2022/08/07 04:06:36;;;;;;;12.20;9.77;;;;;;;22.37;72.97;99942.09;4998260;28;20053;-69
2022/08/07 04:09:03;;;;;;;12.65;9.75;;;;;;;22.56;73.43;99993.47;5033001;28;20510;-69
2022/08/07 04:11:30;;;;;;;16.35;9.75;;;;;;;22.69;73.94;100004.63;5015504;28;20049;-69
2022/08/07 04:13:57;;;;;;;12.45;10.13;;;;;;;22.62;73.90;100010.91;5033151;28;20403;-70
2022/08/07 04:16:22;;;;;;;13.70;10.70;;;;;;;22.57;74.07;100010.13;5033167;28;20498;-70
2022/08/07 04:18:48;;;;;;;14.40;11.18;;;;;;;22.58;73.93;100010.09;5032953;28;20112;-69
2022/08/07 04:21:14;;;;;;;14.13;10.75;;;;;;;22.56;75.26;100008.41;5032566;28;20045;-70
2022/08/07 04:23:40;;;;;;;18.05;11.93;;;;;;;22.65;76.90;100013.44;5032700;28;20491;-70
2022/08/07 04:26:06;;;;;;;12.10;10.38;;;;;;;22.70;77.15;100001.06;5033113;28;20397;-70
2022/08/07 04:28:32;;;;;;;12.90;10.98;;;;;;;22.73;77.22;100010.66;5032759;28;20037;-70
2022/08/07 04:30:58;;;;;;;12.23;10.70;;;;;;;22.81;76.83;100011.38;5032786;28;20041;-70
2022/08/07 04:33:25;;;;;;;16.02;11.35;;;;;;;22.87;76.37;100007.75;4997799;28;20077;-70
2022/08/07 04:35:51;;;;;;;14.07;11.02;;;;;;;22.97;75.67;100014.56;5032683;28;20033;-70
2022/08/07 04:38:18;;;;;;;16.85;11.13;;;;;;;22.88;76.06;100009.47;5032582;28;20033;-70
2022/08/07 04:40:45;;;;;;;14.75;11.18;;;;;;;22.89;76.81;100013.84;5032905;28;20121;-70
2022/08/07 04:43:11;;;;;;;13.35;10.52;;;;;;;22.85;77.24;100006.91;5032650;28;20049;-70
2022/08/07 04:45:42;;;;;;;13.75;11.10;;;;;;;22.91;77.87;100014.69;5032660;28;20038;-69
2022/08/07 04:48:34;;;;;;;13.68;11.10;;;;;;;22.94;77.41;100015.50;5032466;28;20095;-69
2022/08/07 04:51:05;;;;;;;12.43;11.13;;;;;;;23.02;77.07;100006.56;4951732;29;20419;-70
2022/08/07 04:53:40;;;;;;;16.77;11.40;;;;;;;23.08;77.09;100014.34;4951779;28;20115;-70
2022/08/07 04:56:17;;;;;;;16.02;11.25;;;;;;;23.04;76.86;99996.84;4951372;29;20490;-70
2022/08/07 04:58:51;;;;;;;12.30;10.75;;;;;;;22.81;76.94;99958.75;4951836;29;20046;-69
2022/08/07 05:01:38;;;;;;;20.95;10.80;;;;;;;23.20;77.67;100010.56;4951793;29;20046;-70
2022/08/07 05:04:13;;;;;;;14.18;11.25;;;;;;;23.32;77.20;100017.34;4951687;29;20047;-70
2022/08/07 05:06:52;;;;;;;12.48;10.82;;;;;;;23.00;77.16;99953.94;4951512;29;20403;-70
2022/08/07 05:09:37;;;;;;;16.42;11.32;;;;;;;23.15;78.23;100007.16;4951293;29;20099;-70
2022/08/07 05:12:08;;;;;;;14.05;11.13;;;;;;;23.28;78.30;100011.28;4951563;29;20046;-72
2022/08/07 05:14:40;;;;;;;16.23;11.50;;;;;;;23.12;78.70;99996.69;4951453;29;20039;-70
2022/08/07 05:17:08;;;;;;;13.13;11.05;;;;;;;23.28;78.69;100013.91;4950933;29;20115;-69
2022/08/07 05:19:39;;;;;;;12.65;11.35;;;;;;;23.26;79.00;100011.31;4951470;29;20039;-70
2022/08/07 05:22:08;;;;;;;14.98;12.07;;;;;;;23.30;79.00;100020.00;4951472;29;20036;-70
2022/08/07 05:24:36;;;;;;;12.15;10.73;;;;;;;23.38;79.62;100020.69;4951265;29;20125;-70
2022/08/07 05:27:04;;;;;;;12.85;11.52;;;;;;;23.48;79.19;100016.06;4954378;28;20118;-70
2022/08/07 05:29:31;;;;;;;15.45;11.38;;;;;;;23.65;78.71;100022.69;4992306;28;20070;-70
2022/08/07 05:31:58;;;;;;;15.15;11.27;;;;;;;23.77;77.62;100026.81;4992333;28;20411;-70
2022/08/07 05:34:25;;;;;;;15.20;11.68;;;;;;;23.88;77.16;100027.41;4992173;28;20150;-70
2022/08/07 05:36:53;;;;;;;15.40;12.60;;;;;;;23.77;76.73;99982.88;4992473;28;20038;-70
2022/08/07 05:39:20;;;;;;;14.13;12.32;;;;;;;24.06;75.25;100005.00;4992122;28;20500;-70
2022/08/07 05:41:47;;;;;;;17.10;11.57;;;;;;;24.12;74.91;99998.72;4992172;28;20030;-70
2022/08/07 05:44:16;;;;;;;16.10;12.60;;;;;;;24.43;75.01;100037.44;4992060;28;20046;-70
2022/08/07 05:46:43;;;;;;;13.98;12.50;;;;;;;24.49;74.59;100040.78;4974584;28;20057;-70
2022/08/07 05:49:10;;;;;;;14.02;12.52;;;;;;;24.69;73.50;100050.81;4991869;28;20034;-70
2022/08/07 05:51:37;;;;;;;14.48;11.95;;;;;;;24.60;74.06;100026.41;4992485;28;20038;-70
2022/08/07 05:54:02;;;;;;;14.63;11.35;;;;;;;24.49;73.27;100000.34;5011643;28;20034;-70
2022/08/07 05:56:30;;;;;;;14.52;11.10;;;;;;;24.75;73.55;100039.22;5011438;28;20044;-70
2022/08/07 05:58:57;;;;;;;14.63;10.80;;;;;;;24.92;72.80;100049.28;5011309;28;20421;-70
2022/08/07 06:01:26;;;;;;;14.32;11.00;;;;;;;24.89;71.98;100061.72;5011237;28;20038;-70
2022/08/07 06:03:54;;;;;;;13.50;11.38;;;;;;;24.96;72.85;100056.22;5011450;28;20069;-70
2022/08/07 06:06:20;;;;;;;11.88;10.60;;;;;;;25.06;72.95;100059.44;5011241;28;20104;-70
2022/08/07 06:08:46;;;;;;;15.50;10.63;;;;;;;25.14;73.06;100051.28;5011445;28;20073;-70
2022/08/07 06:11:12;;;;;;;12.48;9.90;;;;;;;25.31;71.07;100056.94;5011197;28;20061;-70
2022/08/07 06:13:39;;;;;;;11.80;9.73;;;;;;;25.45;70.63;100053.03;5011344;28;20037;-70
2022/08/07 06:16:08;;;;;;;12.35;11.07;;;;;;;25.61;69.67;100051.63;5011467;28;20041;-70
2022/08/07 06:18:34;;;;;;;12.00;10.52;;;;;;;25.72;70.63;100053.94;5011072;28;20518;-70
2022/08/07 06:21:00;;;;;;;15.10;10.10;;;;;;;25.81;70.68;100053.59;5011227;28;20123;-70
2022/08/07 06:23:26;;;;;;;12.63;10.68;;;;;;;25.93;69.37;100057.63;5011215;28;20038;-70
2022/08/07 06:25:51;;;;;;;14.93;11.05;;;;;;;26.03;68.61;100065.25;5011093;28;20056;-70
2022/08/07 06:28:17;;;;;;;10.43;9.32;;;;;;;26.16;67.28;100056.88;5011075;28;20034;-70
2022/08/07 06:30:43;;;;;;;12.98;10.07;;;;;;;26.26;66.60;100053.94;5010890;28;20099;-70
2022/08/07 06:33:08;;;;;;;12.57;10.05;;;;;;;26.42;66.72;100055.09;5011168;28;20069;-70
2022/08/07 06:35:35;;;;;;;13.90;9.98;;;;;;;26.28;65.56;100015.03;5011153;28;20488;-70
2022/08/07 06:38:02;;;;;;;11.52;9.95;;;;;;;26.68;65.87;100055.97;5010971;28;20545;-70
2022/08/07 06:40:38;;;;;;;11.93;9.88;;;;;;;26.72;66.50;100048.75;5010882;28;20524;-70
2022/08/07 06:43:08;;;;;;;12.25;9.82;;;;;;;26.72;65.03;100051.41;5010844;28;20041;-70
2022/08/07 06:45:33;;;;;;;12.95;10.40;;;;;;;26.79;65.08;100043.22;5010947;28;20038;-71
2022/08/07 06:48:00;;;;;;;19.73;14.80;;;;;;;26.82;64.07;100039.59;5010891;28;20500;-70
2022/08/07 06:50:26;;;;;;;12.68;10.80;;;;;;;27.07;62.89;100057.19;5010612;28;20056;-70
2022/08/07 06:52:54;;;;;;;18.67;13.65;;;;;;;27.08;64.76;100041.22;5010903;28;20058;-70
2022/08/07 06:55:25;;;;;;;10.57;9.35;;;;;;;26.81;62.89;99987.53;5010850;28;20042;-70
2022/08/07 06:57:54;;;;;;;11.30;9.65;;;;;;;27.29;63.93;100031.59;5010694;28;20058;-70
2022/08/07 07:00:19;;;;;;;10.90;9.00;;;;;;;27.46;61.85;100042.47;5010751;28;20642;-70
2022/08/07 07:02:46;;;;;;;10.50;8.88;;;;;;;27.53;60.33;100023.59;5010701;28;20033;-70
2022/08/07 07:05:12;;;;;;;11.68;9.77;;;;;;;27.71;61.69;100047.63;5010766;28;20034;-70
2022/08/07 07:07:38;;;;;;;10.15;8.70;;;;;;;27.71;59.63;100029.91;5010707;28;20214;-70
2022/08/07 07:10:04;;;;;;;10.32;9.00;;;;;;;27.92;59.03;100036.13;5010479;28;20041;-70
2022/08/07 07:12:36;;;;;;;10.43;8.50;;;;;;;27.87;58.75;100037.25;5010568;28;20141;-70
2022/08/07 07:15:13;;;;;;;8.98;7.35;;;;;;;28.11;56.28;100031.88;5010791;28;20100;-70
2022/08/07 07:18:04;;;;;;;10.32;7.80;;;;;;;27.96;58.51;99988.25;5010916;28;20069;-71
2022/08/07 07:20:38;;;;;;;11.65;7.15;;;;;;;28.45;54.44;100036.56;5014229;28;20034;-70
2022/08/07 07:23:05;;;;;;;8.80;7.18;;;;;;;28.71;53.34;100031.88;5014151;28;20041;-70
2022/08/07 07:25:33;;;;;;;7.72;6.93;;;;;;;28.88;51.65;100028.47;5014365;28;20041;-70
2022/08/07 07:28:06;;;;;;;8.23;6.97;;;;;;;28.97;51.29;100032.47;5014195;28;20033;-70
2022/08/07 07:30:36;;;;;;;9.30;7.43;;;;;;;29.04;52.05;100025.94;5014128;28;20117;-70
2022/08/07 07:33:03;;;;;;;15.13;7.82;;;;;;;29.13;51.50;100032.63;5012544;28;20471;-70
2022/08/07 07:35:32;;;;;;;11.95;7.03;;;;;;;29.29;50.51;100025.66;4996696;28;20437;-70
2022/08/07 07:38:01;;;;;;;14.75;6.32;;;;;;;29.34;49.39;100028.97;5014095;28;20034;-69
2022/08/07 07:40:29;;;;;;;7.13;5.78;;;;;;;29.26;49.40;100036.44;5014094;28;20037;-69
2022/08/07 07:42:57;;;;;;;12.57;6.43;;;;;;;29.29;51.24;100032.78;5014005;28;20041;-69
2022/08/07 07:45:28;;;;;;;14.10;6.63;;;;;;;28.83;48.04;99945.47;5013707;28;20081;-69
2022/08/07 07:47:56;;;;;;;10.05;5.82;;;;;;;29.46;48.04;100032.84;5013819;28;20034;-70
2022/08/07 07:50:23;;;;;;;8.27;5.82;;;;;;;29.62;47.91;100032.06;5013852;28;20411;-69
2022/08/07 07:52:51;;;;;;;7.03;5.40;;;;;;;29.52;49.09;100021.00;5013620;28;20050;-69
2022/08/07 07:55:18;;;;;;;10.70;5.85;;;;;;;29.67;46.59;100024.72;5013858;28;20038;-69
2022/08/07 07:57:48;;;;;;;14.27;6.57;;;;;;;29.68;46.66;100026.44;5013661;28;20045;-69
2022/08/07 08:00:14;;;;;;;20.00;7.43;;;;;;;29.63;48.93;100031.13;5013528;28;20117;-69
2022/08/07 08:02:43;;;;;;;7.95;5.50;;;;;;;29.81;47.60;100038.19;5013129;28;20038;-69
2022/08/07 08:05:10;;;;;;;6.88;5.38;;;;;;;29.75;46.91;100033.19;5013446;28;20038;-69
2022/08/07 08:07:37;;;;;;;10.27;6.00;;;;;;;29.66;46.21;100029.19;5013397;28;20404;-69
2022/08/07 08:10:04;;;;;;;6.18;5.25;;;;;;;29.64;46.21;99987.63;5013499;28;20045;-69
2022/08/07 08:12:32;;;;;;;8.70;5.75;;;;;;;29.54;46.76;100003.19;5013513;28;20495;-69
2022/08/07 08:14:58;;;;;;;8.75;5.65;;;;;;;29.48;47.53;100009.66;5013268;28;20071;-70
2022/08/07 08:17:24;;;;;;;6.65;5.22;;;;;;;29.61;46.23;100020.56;5013271;28;20054;-69
2022/08/07 08:19:53;;;;;;;7.40;5.10;;;;;;;29.81;45.68;100013.41;5013146;28;20042;-69
2022/08/07 08:27:53;;;;;;;9.35;5.40;;;;;;;30.23;44.60;100013.94;5013315;28;20049;-69
2022/08/07 08:30:19;;;;;;;11.93;5.65;;;;;;;29.99;44.35;99963.72;5013136;28;20057;-70
2022/08/07 08:33:06;;;;;;;10.27;5.43;;;;;;;30.40;45.03;100007.72;5013057;28;20085;-69
2022/08/07 08:35:35;;;;;;;5.80;4.93;;;;;;;30.30;43.56;99965.59;5012784;28;20037;-70
2022/08/07 08:38:02;;;;;;;7.63;5.20;;;;;;;30.55;45.02;99985.63;5012921;28;20042;-69
2022/08/07 08:40:36;;;;;;;9.23;5.80;;;;;;;30.80;44.73;99993.13;5013082;28;20120;-70
2022/08/07 08:43:13;;;;;;;7.40;5.18;;;;;;;30.88;44.48;99995.38;5012903;28;20041;-69
2022/08/07 08:45:50;;;;;;;21.45;6.70;;;;;;;30.97;43.68;99996.69;5012829;28;20038;-70
2022/08/07 08:48:29;;;;;;;7.18;5.40;;;;;;;30.88;43.52;99999.84;5012685;28;20038;-70
2022/08/07 08:51:12;;;;;;;14.93;5.97;;;;;;;30.69;43.07;99986.69;4961820;28;20496;-70
2022/08/07 08:53:56;;;;;;;8.07;5.13;;;;;;;30.50;43.76;99985.84;5012476;28;20045;-69
2022/08/07 08:56:41;;;;;;;7.72;5.22;;;;;;;30.22;44.43;99996.25;5012422;28;20485;-70
2022/08/07 08:59:24;;;;;;;6.80;5.60;;;;;;;30.06;44.76;99994.41;5012484;28;20608;-69
2022/08/07 09:02:34;;;;;;;6.63;4.95;;;;;;;30.11;44.82;99991.50;5012514;28;20820;-69
2022/08/07 09:05:25;;;;;;;6.70;5.20;;;;;;;30.38;44.43;99988.31;4932481;29;20043;-69
2022/08/07 09:07:54;;;;;;;6.85;4.72;;;;;;;30.60;44.44;99990.72;4932699;29;20040;-69
2022/08/07 09:10:23;;;;;;;;;;;;;;;30.78;45.02;99979.03;4933119;29;20048;-69
2022/08/07 09:13:01;;;;;;;6.95;4.75;;;;;;;30.96;41.99;99973.63;4932539;29;19911;-70
2022/08/07 09:15:29;;;;;;;9.40;5.03;;;;;;;31.24;42.18;99966.75;4932463;29;20417;-69
2022/08/07 09:17:57;;;;;;;6.90;4.73;;;;;;;31.44;41.79;99977.13;4932718;29;20526;-69
2022/08/07 09:20:41;;;;;;;8.93;5.40;;;;;;;31.54;44.08;99973.91;4932490;29;20063;-69
2022/08/07 09:23:46;;;;;;;9.73;4.95;;;;;;;31.34;39.46;99961.75;4932360;29;20516;-69
2022/08/07 09:26:43;;;;;;;6.63;5.22;;;;;;;31.28;41.44;99969.16;4875674;29;20116;-69
2022/08/07 09:29:20;;;;;;;6.20;5.03;;;;;;;31.49;41.41;99970.66;4875863;29;20033;-69
2022/08/07 09:32:08;;;;;;;7.90;4.85;;;;;;;31.65;39.95;99954.63;4875718;29;20045;-69
2022/08/07 09:34:59;;;;;;;7.00;4.82;;;;;;;31.60;38.27;99963.75;4875855;29;20041;-70
2022/08/07 09:37:37;;;;;;;9.85;4.70;;;;;;;31.62;39.19;99977.00;4875741;29;20041;-69
2022/08/07 09:40:13;;;;;;;9.27;5.10;;;;;;;31.32;40.52;99913.84;4879107;29;20055;-70
2022/08/07 09:42:51;;;;;;;6.20;4.72;;;;;;;31.84;39.70;99955.25;4894019;29;20048;-70
2022/08/07 09:45:34;;;;;;;6.18;5.00;;;;;;;32.13;37.72;99949.06;4894251;29;20044;-69
2022/08/07 09:48:11;;;;;;;7.57;5.18;;;;;;;32.31;38.32;99942.63;4894162;29;20104;-69
2022/08/07 09:50:50;;;;;;;7.30;5.25;;;;;;;31.87;38.22;99954.22;4893799;29;20468;-69
2022/08/07 09:53:18;;;;;;;6.57;5.25;;;;;;;31.57;38.16;99944.41;4894149;29;20420;-70
2022/08/07 09:55:47;;;;;;;7.47;5.50;;;;;;;31.76;38.52;99947.69;4894076;29;20527;-70
2022/08/07 09:58:25;;;;;;;8.43;6.53;;;;;;;32.04;39.09;99946.03;4894000;29;20087;-69
2022/08/07 10:01:08;;;;;;;6.70;6.00;;;;;;;32.20;38.46;99939.78;4893800;29;20080;-69
2022/08/07 10:04:08;;;;;;;6.32;5.18;;;;;;;32.45;37.56;99941.78;4947680;28;20061;-69
2022/08/07 10:06:49;;;;;;;7.18;5.15;;;;;;;32.78;36.98;99932.56;4950790;28;20043;-69
2022/08/07 10:09:47;;;;;;;7.32;5.93;;;;;;;32.49;36.00;99880.97;4950610;29;20074;-69
2022/08/07 10:12:21;;;;;;;7.72;5.40;;;;;;;32.29;35.95;99901.81;4859356;29;20044;-70
2022/08/07 10:15:17;;;;;;;12.57;5.43;;;;;;;32.30;37.84;99937.38;4875194;29;20516;-70
2022/08/07 10:18:21;;;;;;;10.23;5.40;;;;;;;32.12;36.64;99939.38;4874834;29;20524;-69
2022/08/07 10:21:23;;;;;;;7.57;5.22;;;;;;;32.06;37.32;99941.44;4819836;29;20153;-69
2022/08/07 10:24:20;;;;;;;6.82;6.10;;;;;;;32.46;37.96;99924.78;4819695;29;20038;-69
2022/08/07 10:26:57;;;;;;;7.30;4.82;;;;;;;32.63;36.11;99923.69;4819817;29;20165;-70
2022/08/07 10:29:29;;;;;;;6.45;4.78;;;;;;;32.97;36.13;99915.34;4819809;29;20046;-69
2022/08/07 10:32:38;;;;;;;6.22;4.90;;;;;;;32.99;34.60;99930.31;4819815;29;20046;-70
2022/08/07 10:35:35;;;;;;;6.20;4.43;;;;;;;33.08;33.41;99909.28;4821917;29;20045;-69
2022/08/07 10:38:19;;;;;;;6.88;4.18;;;;;;;33.30;31.83;99896.22;4837839;29;20038;-70
2022/08/07 10:41:08;;;;;;;5.60;4.13;;;;;;;33.68;31.49;99908.81;4837696;29;20042;-70
2022/08/07 10:43:37;;;;;;;33.83;7.95;;;;;;;33.97;31.83;99903.28;4837754;29;20069;-70
2022/08/07 10:46:16;;;;;;;24.10;5.93;;;;;;;34.22;34.14;99912.25;4837861;29;20037;-69
2022/08/07 10:49:20;;;;;;;4.25;3.60;;;;;;;33.90;30.86;99907.34;4846089;29;20045;-70
2022/08/07 10:51:56;;;;;;;8.57;4.07;;;;;;;33.90;31.20;99912.69;4819595;29;20057;-69
2022/08/07 10:54:28;;;;;;;6.63;3.90;;;;;;;34.01;32.54;99915.47;4841015;29;20061;-70
2022/08/07 10:57:05;;;;;;;7.93;3.97;;;;;;;33.89;31.91;99884.19;4845603;29;20506;-69
2022/08/07 10:59:53;;;;;;;9.73;4.47;;;;;;;33.63;31.58;99916.28;4878415;29;20043;-70
2022/08/07 11:02:30;;;;;;;9.20;4.95;;;;;;;34.01;33.59;99899.41;4878251;29;20045;-70
2022/08/07 11:05:12;;;;;;;12.15;5.50;;;;;;;33.56;33.38;99824.00;4884375;29;20140;-70
2022/08/07 11:08:05;;;;;;;14.25;6.00;;;;;;;33.91;31.75;99908.19;4915818;29;20040;-70
2022/08/07 11:10:38;;;;;;;6.88;4.53;;;;;;;33.99;32.80;99897.78;4915799;29;20048;-69
2022/08/07 11:13:29;;;;;;;9.75;4.68;;;;;;;33.54;32.07;99906.22;4915844;29;20048;-69
2022/08/07 11:16:01;;;;;;;7.00;4.55;;;;;;;33.32;32.91;99905.00;4915682;29;20040;-70
2022/08/07 11:18:27;;;;;;;5.65;4.30;;;;;;;33.06;33.75;99902.22;4915713;29;20044;-69
2022/08/07 11:21:18;;;;;;;7.70;4.95;;;;;;;32.98;33.89;99899.19;4915614;29;20860;-70
2022/08/07 11:24:10;;;;;;;8.63;4.95;;;;;;;33.36;35.21;99870.84;5013615;28;20188;-70
2022/08/07 11:26:48;;;;;;;7.53;4.25;;;;;;;33.87;33.53;99875.41;5014173;28;20044;-70
2022/08/07 11:29:25;;;;;;;5.22;4.10;;;;;;;33.86;32.42;99887.94;4980638;28;20500;-70
2022/08/07 11:31:59;;;;;;;5.75;4.38;;;;;;;33.93;33.24;99858.06;5014138;28;20029;-70
2022/08/07 11:34:32;;;;;;;7.82;4.38;;;;;;;34.12;31.92;99884.38;5014050;28;20046;-70
2022/08/07 11:37:26;;;;;;;5.78;4.53;;;;;;;34.30;31.19;99876.84;5013936;28;20062;-70
2022/08/07 11:40:24;;;;;;;7.95;4.10;;;;;;;34.12;31.28;99862.94;5011878;28;20419;-71
2022/08/07 11:42:59;;;;;;;6.07;4.20;;;;;;;33.85;31.56;99888.91;5013919;28;20041;-70
2022/08/07 11:45:43;;;;;;;11.65;5.60;;;;;;;33.71;32.50;99903.22;5013932;28;20499;-69
2022/08/07 11:48:30;;;;;;;8.70;5.10;;;;;;;33.51;33.53;99901.94;5014183;28;20068;-70
2022/08/07 11:51:02;;;;;;;9.88;5.07;;;;;;;33.39;33.24;99916.13;5014064;28;20030;-70